createdAt,value
2023-07-08T00:00:52.202Z,7.28
2023-07-08T00:05:56.886Z,9.30
2023-07-08T00:10:58.726Z,8.48
2023-07-08T00:16:00.776Z,9.25
2023-07-08T00:21:02.585Z,8.02
2023-07-08T00:26:27.862Z,8.80
2023-07-08T00:31:29.536Z,9.10
2023-07-08T00:36:32.105Z,8.60
2023-07-08T00:41:38.553Z,10.05
2023-07-08T00:47:06.392Z,7.93
2023-07-08T00:52:29.056Z,9.73
2023-07-08T00:57:35.854Z,10.60
2023-07-08T01:02:43.363Z,9.52
2023-07-08T01:07:50.042Z,7.60
2023-07-08T01:17:56.843Z,8.85
2023-07-08T01:22:58.588Z,8.77
2023-07-08T01:28:00.645Z,7.38
2023-07-08T01:33:08.352Z,8.80
2023-07-08T01:38:13.397Z,10.38
2023-07-08T01:43:15.116Z,9.93
2023-07-08T01:48:21.691Z,8.23
2023-07-08T01:53:30.737Z,8.57
2023-07-08T01:58:32.331Z,10.48
2023-07-08T02:03:34.245Z,7.57
2023-07-08T02:08:35.794Z,8.70
2023-07-08T02:13:37.755Z,8.48
2023-07-08T02:18:39.412Z,8.30
2023-07-08T02:23:41.087Z,8.43
2023-07-08T02:28:42.838Z,8.32
2023-07-08T02:33:44.433Z,12.23
2023-07-08T02:38:47.118Z,7.95
2023-07-08T02:43:48.700Z,8.50
2023-07-08T02:48:50.399Z,9.57
2023-07-08T02:53:52.110Z,6.90
2023-07-08T02:58:54.417Z,7.32
2023-07-08T03:03:56.143Z,7.18
2023-07-08T03:08:57.940Z,9.55
2023-07-08T03:13:59.706Z,10.32
2023-07-08T03:19:01.878Z,8.82
2023-07-08T03:24:04.637Z,8.02
2023-07-08T03:29:16.334Z,8.73
2023-07-08T03:34:19.358Z,7.10
2023-07-08T03:39:23.727Z,8.75
2023-07-08T03:44:25.528Z,8.27
2023-07-08T03:49:27.168Z,8.60
2023-07-08T03:54:30.785Z,6.07
2023-07-08T03:59:33.771Z,8.57
2023-07-08T04:04:35.759Z,8.63
2023-07-08T04:09:38.476Z,7.60
2023-07-08T04:14:40.149Z,7.75
2023-07-08T04:19:41.707Z,8.07
2023-07-08T04:24:43.605Z,8.63
2023-07-08T04:29:45.324Z,8.80
2023-07-08T04:34:47.137Z,8.10
2023-07-08T04:39:49.032Z,7.32
2023-07-08T04:44:50.848Z,6.25
2023-07-08T04:49:52.480Z,7.72
2023-07-08T04:54:54.163Z,7.45
2023-07-08T04:59:55.742Z,7.55
2023-07-08T05:05:00.382Z,6.35
2023-07-08T05:10:01.994Z,6.93
2023-07-08T05:15:05.692Z,6.63
2023-07-08T05:20:09.879Z,5.90
2023-07-08T05:25:13.315Z,6.03
2023-07-08T05:30:18.154Z,7.07
2023-07-08T05:35:19.920Z,5.50
2023-07-08T05:40:21.706Z,6.68
2023-07-08T05:45:23.312Z,6.10
2023-07-08T05:50:24.941Z,6.22
2023-07-08T05:55:26.888Z,4.93
2023-07-08T06:00:38.468Z,6.95
2023-07-08T06:05:41.146Z,6.10
2023-07-08T06:10:45.186Z,9.00
2023-07-08T06:15:48.024Z,6.82
2023-07-08T06:20:58.356Z,6.28
2023-07-08T06:26:00.111Z,5.45
2023-07-08T06:31:01.990Z,6.57
2023-07-08T06:36:03.962Z,5.57
2023-07-08T06:41:05.567Z,5.47
2023-07-08T06:46:07.163Z,6.78
2023-07-08T06:51:08.747Z,5.03
2023-07-08T06:56:10.300Z,6.07
2023-07-08T07:01:12.010Z,5.95
2023-07-08T07:06:13.752Z,6.97
2023-07-08T07:11:15.728Z,7.30
2023-07-08T07:16:17.393Z,5.43
2023-07-08T07:21:19.323Z,6.03
2023-07-08T07:26:22.968Z,6.55
2023-07-08T07:31:26.045Z,5.82
2023-07-08T07:36:27.739Z,9.20
2023-07-08T07:41:29.387Z,8.25
2023-07-08T07:46:30.989Z,5.35
2023-07-08T07:51:32.646Z,6.65
2023-07-08T07:56:34.243Z,6.75
2023-07-08T08:01:35.805Z,5.50
2023-07-08T08:06:37.865Z,7.35
2023-07-08T08:11:39.545Z,5.65
2023-07-08T08:16:41.164Z,6.63
2023-07-08T08:21:43.323Z,6.43
2023-07-08T08:26:45.322Z,7.93
2023-07-08T08:31:47.280Z,6.95
2023-07-08T08:36:49.091Z,6.25
2023-07-08T08:41:51.516Z,7.15
2023-07-08T08:46:59.194Z,8.07
2023-07-08T08:52:01.075Z,7.20
2023-07-08T08:57:24.509Z,6.57
2023-07-08T09:02:39.891Z,5.37
2023-07-08T09:07:48.233Z,5.93
2023-07-08T09:12:54.258Z,7.00
2023-07-08T09:18:01.059Z,6.82
2023-07-08T09:23:26.361Z,6.38
2023-07-08T09:28:43.122Z,5.20
2023-07-08T09:33:44.722Z,5.90
2023-07-08T09:38:49.903Z,6.32
2023-07-08T09:43:51.564Z,6.25
2023-07-08T09:48:53.171Z,5.03
2023-07-08T09:53:54.730Z,6.78
2023-07-08T09:58:56.599Z,6.15
2023-07-08T10:04:02.289Z,5.53
2023-07-08T10:09:14.016Z,5.40
2023-07-08T10:14:39.799Z,6.57
2023-07-08T10:19:43.776Z,7.18
2023-07-08T10:25:18.322Z,6.70
2023-07-08T10:30:26.343Z,8.52
2023-07-08T10:35:31.407Z,7.50
2023-07-08T10:40:38.892Z,5.68
2023-07-08T10:45:47.328Z,5.93
2023-07-08T10:51:10.661Z,6.03
2023-07-08T10:56:19.141Z,6.65
2023-07-08T11:01:31.899Z,7.85
2023-07-08T11:06:51.850Z,5.57
2023-07-08T11:12:02.845Z,5.40
2023-07-08T11:17:10.199Z,7.35
2023-07-08T11:22:14.990Z,7.30
2023-07-08T11:27:41.822Z,7.00
2023-07-08T11:32:46.676Z,6.25
2023-07-08T11:37:48.829Z,5.72
2023-07-08T11:43:01.169Z,6.25
2023-07-08T11:48:07.809Z,8.30
2023-07-08T11:53:12.609Z,5.97
2023-07-08T11:58:22.421Z,5.65
2023-07-08T12:03:35.108Z,10.07
2023-07-08T12:08:42.965Z,5.60
2023-07-08T12:13:44.781Z,7.95
2023-07-08T12:18:48.799Z,6.13
2023-07-08T12:23:50.371Z,6.22
2023-07-08T12:28:53.035Z,8.32
2023-07-08T12:33:55.604Z,7.40
2023-07-08T12:39:00.614Z,7.32
2023-07-08T12:44:03.079Z,8.00
2023-07-08T12:49:04.699Z,7.35
2023-07-08T12:54:06.293Z,7.85
2023-07-08T12:59:07.972Z,6.38
2023-07-08T13:04:12.905Z,5.18
2023-07-08T13:09:32.694Z,6.90
2023-07-08T13:14:34.750Z,10.48
2023-07-08T13:19:36.361Z,9.20
2023-07-08T13:24:38.202Z,6.47
2023-07-08T13:29:40.095Z,6.70
2023-07-08T13:34:41.973Z,7.38
2023-07-08T13:39:47.352Z,8.25
2023-07-08T13:44:50.178Z,8.13
2023-07-08T13:50:05.720Z,6.10
2023-07-08T13:55:20.062Z,6.72
2023-07-08T14:00:22.559Z,6.40
2023-07-08T14:05:24.278Z,6.95
2023-07-08T14:10:26.078Z,5.95
2023-07-08T14:15:27.698Z,7.80
2023-07-08T14:20:30.373Z,7.97
2023-07-08T14:25:32.119Z,7.80
2023-07-08T14:30:38.351Z,5.93
2023-07-08T14:35:42.196Z,7.15
2023-07-08T14:40:43.885Z,7.22
2023-07-08T14:45:50.440Z,7.35
2023-07-08T14:50:52.235Z,7.80
2023-07-08T14:55:56.728Z,8.77
2023-07-08T15:01:01.240Z,7.35
2023-07-08T15:06:03.247Z,6.72
2023-07-08T15:11:05.912Z,6.35
2023-07-08T15:16:15.954Z,9.77
2023-07-08T15:21:17.616Z,8.82
2023-07-08T15:26:19.378Z,7.80
2023-07-08T15:31:24.779Z,7.25
2023-07-08T15:36:26.571Z,7.15
2023-07-08T15:41:28.416Z,9.02
2023-07-08T15:46:36.577Z,9.75
2023-07-08T15:51:38.531Z,6.50
2023-07-08T15:56:41.420Z,13.77
2023-07-08T16:01:43.743Z,7.95
2023-07-08T16:06:45.350Z,8.05
2023-07-08T16:11:47.237Z,7.53
2023-07-08T16:16:49.016Z,8.93
2023-07-08T16:21:50.655Z,9.02
2023-07-08T16:26:52.278Z,9.40
2023-07-08T16:31:54.056Z,10.25
2023-07-08T16:36:55.666Z,9.23
2023-07-08T16:41:57.483Z,16.02
2023-07-08T16:46:59.363Z,15.10
2023-07-08T16:52:01.273Z,9.88
2023-07-08T16:57:02.976Z,25.08
2023-07-08T17:02:15.850Z,13.63
2023-07-08T17:07:17.618Z,13.93
2023-07-08T17:12:19.210Z,16.08
2023-07-08T17:17:20.904Z,21.25
2023-07-08T17:22:22.567Z,3.38
2023-07-08T17:27:24.547Z,0.70
2023-07-08T17:32:26.401Z,1.13
2023-07-08T17:37:28.189Z,0.35
2023-07-08T17:42:29.751Z,0.25
2023-07-08T17:47:31.461Z,0.40
2023-07-08T17:52:33.191Z,0.10
2023-07-08T17:57:35.828Z,0.85
2023-07-08T18:02:37.514Z,0.68
2023-07-08T18:07:39.226Z,0.50
2023-07-08T18:12:41.659Z,0.20
2023-07-08T18:17:43.509Z,0.57
2023-07-08T18:22:48.584Z,1.95
2023-07-08T18:27:50.797Z,0.93
2023-07-08T18:32:53.114Z,0.10
2023-07-08T18:37:55.970Z,0.43
2023-07-08T18:43:06.998Z,3.05
2023-07-08T18:48:13.785Z,1.35
2023-07-08T18:53:17.882Z,0.70
2023-07-08T18:58:23.443Z,0.88
2023-07-08T19:03:28.761Z,0.70
2023-07-08T19:08:30.536Z,0.20
2023-07-08T19:13:32.145Z,0.40
2023-07-08T19:18:33.827Z,2.08
2023-07-08T19:23:35.707Z,0.57
2023-07-08T19:28:37.379Z,0.55
2023-07-08T19:33:39.183Z,5.03
2023-07-08T19:38:40.964Z,0.73
2023-07-08T19:43:43.064Z,2.15
2023-07-08T19:48:44.880Z,1.02
2023-07-08T19:53:46.719Z,0.60
2023-07-08T19:58:48.826Z,0.68
2023-07-08T20:03:50.668Z,0.93
2023-07-08T20:08:52.678Z,0.20
2023-07-08T20:13:54.716Z,2.72
2023-07-08T20:18:56.409Z,0.20
2023-07-08T20:23:58.003Z,1.05
2023-07-08T20:29:00.109Z,1.60
2023-07-08T20:34:01.694Z,0.52
2023-07-08T20:39:04.283Z,0.98
2023-07-08T20:44:05.881Z,1.35
2023-07-08T20:49:10.801Z,1.77
2023-07-08T20:54:15.634Z,1.45
2023-07-08T20:59:19.289Z,0.40
2023-07-08T21:04:21.379Z,0.52
2023-07-08T21:09:22.977Z,0.50
2023-07-08T21:14:24.658Z,0.63
2023-07-08T21:19:26.221Z,0.50
2023-07-08T21:24:30.861Z,1.65
2023-07-08T21:29:32.826Z,0.77
2023-07-08T21:34:34.394Z,2.15
2023-07-08T21:39:36.104Z,1.27
2023-07-08T21:44:37.776Z,0.57
2023-07-08T21:49:39.392Z,2.08
2023-07-08T21:54:40.943Z,1.98
2023-07-08T21:59:42.511Z,0.73
2023-07-08T22:04:44.253Z,0.52
2023-07-08T22:09:45.891Z,8.30
2023-07-08T22:14:47.484Z,1.05
2023-07-08T22:19:49.087Z,0.40
2023-07-08T22:24:50.901Z,0.75
2023-07-08T22:29:52.531Z,0.82
2023-07-08T22:34:54.140Z,0.40
2023-07-08T22:39:55.935Z,2.22
2023-07-08T22:44:57.675Z,3.88
2023-07-08T22:49:59.247Z,0.50
2023-07-08T22:55:04.164Z,0.93
2023-07-08T23:00:06.780Z,0.60
2023-07-08T23:05:08.618Z,0.20
2023-07-08T23:10:14.542Z,1.23
2023-07-08T23:15:16.174Z,0.95
2023-07-08T23:20:20.964Z,1.67
2023-07-08T23:25:22.814Z,1.98
2023-07-08T23:30:24.516Z,0.52
2023-07-08T23:35:26.188Z,1.27
2023-07-08T23:40:27.910Z,1.27
2023-07-08T23:45:29.605Z,4.88
2023-07-08T23:50:31.225Z,0.55
2023-07-08T23:55:32.825Z,0.93
